SafetyDude
Topic Author
Posts: 3654
Joined: Fri Sep 07, 2001 10:02 am

JFK Runway Ops Tomorrow?

Wed Mar 23, 2005 7:41 am

Hi all,
I am wondering if anyone knows which runways at JFK will be used tomorrow.

Thanks.
-Will
"She Flew For What We Stand For"
 
Tom in NO
Posts: 6725
Joined: Thu Nov 11, 1999 10:10 am

RE: JFK Runway Ops Tomorrow?

Wed Mar 23, 2005 7:49 am

The primary determinant will be the weather. Other factors that may dictate which runway(s) are used include scheduled runway maintenance (lighting, paving, or otherwise), runway construction, navaid maintenance, any number of things.

If you have tomorrow's forecast with regards to wind, you could make a logical guess, and take your chances.

Tom at MSY
"The criminal ineptitude makes you furious"-Bruce Springsteen, after seeing firsthand the damage from Hurricane Katrina
 
OPNLguy
Posts: 11191
Joined: Tue Jun 15, 1999 11:29 am

RE: JFK Runway Ops Tomorrow?

Wed Mar 23, 2005 8:01 am

KJFK 222251Z 18015KT 10SM BKN250 06/M01 A3015 RMK AO2 SLP209 T00561011

KJFK 221734Z 221818 19008KT P6SM FEW250
FM0200 21006KT P6SM BKN250
FM0900 VRB03KT P6SM FEW050 BKN150
FM1500 07012KT 5SM -RA BR BKN025 OVC040

Based on JFK's forecast for 15Z tomorrow morning, I'd suspect the 04's for arrivals and the 13's for departures...
ALL views, opinions expressed are mine ONLY and are NOT representative of those shared by Southwest Airlines Co.
 
PJS800
Posts: 238
Joined: Wed Oct 15, 2003 10:47 am

RE: JFK Runway Ops Tomorrow?

Wed Mar 23, 2005 8:03 am

The winds for JFK tomorrow morning at 10am are forecasted to be 070 at 12 knots. I don't know much about JFK operations, but if I had to guess they'd be using 4L and 4R.

KJFK 221734Z 221818 19008KT P6SM FEW250
FM0200 21006KT P6SM BKN250
FM0900 VRB03KT P6SM FEW050 BKN150
FM1500 07012KT 5SM -RA BR BKN025 OVC040=

PJ
 
OPNLguy
Posts: 11191
Joined: Tue Jun 15, 1999 11:29 am

RE: JFK Runway Ops Tomorrow?

Wed Mar 23, 2005 8:36 am

Updated TAF is out, and after 1500z is still looks like the 4's for arrivals and the 13's for departures... The rain/mist probably won't make for very good photos...  Sad

KJFK 222325Z 230024 19012KT P6SM SCT250
FM0300 21007KT P6SM BKN250
FM0900 VRB03KT P6SM FEW050 BKN150
FM1500 06015KT 5SM -RA BR BKN025 OVC040
FM2100 06018KT 1SM RA BR OVC010
ALL views, opinions expressed are mine ONLY and are NOT representative of those shared by Southwest Airlines Co.

Popular Searches On Airliners.net

Top Photos of Last:   24 Hours  •  48 Hours  •  7 Days  •  30 Days  •  180 Days  •  365 Days  •  All Time

Military Aircraft Every type from fighters to helicopters from air forces around the globe

Classic Airliners Props and jets from the good old days

Flight Decks Views from inside the cockpit

Aircraft Cabins Passenger cabin shots showing seat arrangements as well as cargo aircraft interior

Cargo Aircraft Pictures of great freighter aircraft

Government Aircraft Aircraft flying government officials

Helicopters Our large helicopter section. Both military and civil versions

Blimps / Airships Everything from the Goodyear blimp to the Zeppelin

Night Photos Beautiful shots taken while the sun is below the horizon

Accidents Accident, incident and crash related photos

Air to Air Photos taken by airborne photographers of airborne aircraft

Special Paint Schemes Aircraft painted in beautiful and original liveries

Airport Overviews Airport overviews from the air or ground

Tails and Winglets Tail and Winglet closeups with beautiful airline logos